createdAt,value
2023-01-11T00:01:55.313Z,94.13
2023-01-11T00:07:03.140Z,94.20
2023-01-11T00:12:12.754Z,94.13
2023-01-11T00:17:19.280Z,94.07
2023-01-11T00:22:27.518Z,94.14
2023-01-11T00:27:35.572Z,94.15
2023-01-11T00:32:42.085Z,94.31
2023-01-11T00:37:49.910Z,94.27
2023-01-11T00:43:13.712Z,94.49
2023-01-11T00:48:19.965Z,94.35
2023-01-11T00:53:27.787Z,94.27
2023-01-11T00:58:34.692Z,94.09
2023-01-11T01:03:41.125Z,94.21
2023-01-11T01:08:48.830Z,94.47
2023-01-11T01:14:13.045Z,94.40
2023-01-11T01:19:19.686Z,94.38
2023-01-11T01:24:29.143Z,94.32
2023-01-11T01:29:35.804Z,94.34
2023-01-11T01:34:42.116Z,94.36
2023-01-11T01:39:50.007Z,94.60
2023-01-11T01:45:03.733Z,94.64
2023-01-11T01:50:17.694Z,94.31
2023-01-11T01:55:30.850Z,94.55
2023-01-11T02:00:41.080Z,94.30
2023-01-11T02:05:48.414Z,94.77
2023-01-11T02:10:57.213Z,94.66
2023-01-11T02:16:09.513Z,94.32
2023-01-11T02:21:27.952Z,94.25
2023-01-11T02:27:27.951Z,94.55
2023-01-11T02:32:48.962Z,94.63
2023-01-11T02:38:07.124Z,94.47
2023-01-11T02:43:37.551Z,94.56
2023-01-11T02:48:56.282Z,94.76
2023-01-11T02:54:07.704Z,94.87
2023-01-11T02:59:19.029Z,94.76
2023-01-11T03:04:33.150Z,94.63
2023-01-11T03:09:52.555Z,94.74
2023-01-11T03:15:16.916Z,94.91
2023-01-11T03:20:30.706Z,94.73
2023-01-11T03:25:49.956Z,94.88
2023-01-11T03:31:04.239Z,94.83
2023-01-11T03:36:36.725Z,94.76
2023-01-11T03:41:45.323Z,94.70
2023-01-11T03:46:57.537Z,94.76
2023-01-11T03:52:10.186Z,94.74
2023-01-11T03:57:22.336Z,95.04
2023-01-11T04:02:35.934Z,94.89
2023-01-11T04:07:44.304Z,94.86
2023-01-11T04:12:51.317Z,94.69
2023-01-11T04:18:05.348Z,94.81
2023-01-11T04:23:13.244Z,94.82
2023-01-11T04:28:19.755Z,94.74
2023-01-11T04:33:26.940Z,94.55
2023-01-11T04:38:36.396Z,94.68
2023-01-11T04:43:43.542Z,94.73
2023-01-11T04:48:50.050Z,94.89
2023-01-11T04:53:57.779Z,95.07
2023-01-11T04:59:04.466Z,94.73
2023-01-11T05:04:13.324Z,94.60
2023-01-11T05:09:21.841Z,94.69
2023-01-11T05:14:29.057Z,94.61
2023-01-11T05:19:35.336Z,94.39
2023-01-11T05:24:43.943Z,94.24
2023-01-11T05:29:51.948Z,94.48
2023-01-11T05:34:58.412Z,94.28
2023-01-11T05:40:08.462Z,94.09
2023-01-11T05:45:32.280Z,93.81
2023-01-11T05:50:38.854Z,93.97
2023-01-11T05:55:56.039Z,94.16
2023-01-11T06:01:02.527Z,94.06
2023-01-11T06:06:10.434Z,94.19
2023-01-11T06:11:18.729Z,93.96
2023-01-11T06:16:26.351Z,94.08
2023-01-11T06:21:33.349Z,94.13
2023-01-11T06:26:41.731Z,94.11
2023-01-11T06:31:48.896Z,94.08
2023-01-11T06:36:55.365Z,93.94
2023-01-11T06:42:03.567Z,93.88
2023-01-11T06:47:10.031Z,93.77
2023-01-11T06:52:16.896Z,93.68
2023-01-11T06:57:25.017Z,93.91
2023-01-11T07:02:31.452Z,93.63
2023-01-11T07:07:38.258Z,93.90
2023-01-11T07:12:46.034Z,94.07
2023-01-11T07:17:57.495Z,93.87
2023-01-11T07:23:03.880Z,93.94
2023-01-11T07:28:12.877Z,94.05
2023-01-11T07:33:18.914Z,94.24
2023-01-11T07:38:25.409Z,94.05
2023-01-11T07:43:33.845Z,93.92
2023-01-11T07:48:40.130Z,94.18
2023-01-11T07:53:46.320Z,94.19
2023-01-11T07:58:54.333Z,94.31
2023-01-11T08:04:01.186Z,94.16
2023-01-11T08:09:07.861Z,93.97
2023-01-11T08:14:33.336Z,93.97
2023-01-11T08:19:39.793Z,93.78
2023-01-11T08:24:46.449Z,93.78
2023-01-11T08:29:54.524Z,94.03
2023-01-11T08:35:00.920Z,93.80
2023-01-11T08:40:12.945Z,93.78
2023-01-11T08:45:21.290Z,93.83
2023-01-11T08:50:28.319Z,93.67
2023-01-11T08:55:35.042Z,93.64
2023-01-11T09:00:45.306Z,93.30
2023-01-11T09:05:52.280Z,93.20
2023-01-11T09:11:02.850Z,93.14
2023-01-11T09:16:11.109Z,92.44
2023-01-11T09:21:17.641Z,92.27
2023-01-11T09:26:24.021Z,92.35
2023-01-11T09:31:32.125Z,92.14
2023-01-11T09:36:40.519Z,92.21
2023-01-11T09:42:32.661Z,91.88
2023-01-11T09:47:44.066Z,91.81
2023-01-11T09:52:55.141Z,91.36
2023-01-11T09:58:39.409Z,91.16
2023-01-11T10:04:41.110Z,90.72
2023-01-11T10:18:40.286Z,90.38
2023-01-11T10:21:09.903Z,90.53
2023-01-11T10:26:28.637Z,90.39
2023-01-11T10:31:49.603Z,90.12
2023-01-11T10:37:24.231Z,89.72
2023-01-11T10:42:35.454Z,90.17
2023-01-11T10:47:46.837Z,90.37
2023-01-11T10:53:03.187Z,90.20
2023-01-11T10:58:28.586Z,89.61
2023-01-11T11:04:09.269Z,89.49
2023-01-11T11:09:26.486Z,89.00
2023-01-11T11:14:41.237Z,89.31
2023-01-11T11:19:47.845Z,89.30
2023-01-11T11:25:05.450Z,88.93
2023-01-11T11:30:14.979Z,88.64
2023-01-11T11:35:39.052Z,88.63
2023-01-11T11:40:57.501Z,88.19
2023-01-11T11:46:06.569Z,87.48
2023-01-11T11:51:27.022Z,87.32
2023-01-11T11:56:38.411Z,87.31
2023-01-11T12:01:48.689Z,87.08
2023-01-11T12:07:10.067Z,86.98
2023-01-11T12:12:26.899Z,86.85
2023-01-11T12:17:35.705Z,86.77
2023-01-11T12:22:42.178Z,87.13
2023-01-11T12:28:03.577Z,87.27
2023-01-11T12:33:30.233Z,87.15
2023-01-11T12:38:49.319Z,87.41
2023-01-11T12:44:06.548Z,87.30
2023-01-11T12:49:32.957Z,87.34
2023-01-11T12:55:02.431Z,87.42
2023-01-11T13:00:44.082Z,87.50
2023-01-11T13:06:03.579Z,87.79
2023-01-11T13:11:35.431Z,88.19
2023-01-11T13:16:52.783Z,88.00
2023-01-11T13:22:04.897Z,87.41
2023-01-11T13:27:24.939Z,87.58
2023-01-11T13:32:38.021Z,87.58
2023-01-11T13:37:53.673Z,87.48
2023-01-11T13:43:07.179Z,87.53
2023-01-11T13:48:23.625Z,87.55
2023-01-11T13:53:43.582Z,88.00
2023-01-11T13:58:57.285Z,88.28
2023-01-11T14:04:13.070Z,87.78
2023-01-11T14:09:45.680Z,87.83
2023-01-11T14:15:19.680Z,88.38
2023-01-11T14:20:36.875Z,88.17
2023-01-11T14:26:07.725Z,88.38
2023-01-11T14:31:50.081Z,88.25
2023-01-11T14:37:47.907Z,88.52
2023-01-11T14:43:41.154Z,88.53
2023-01-11T14:49:03.250Z,88.62
2023-01-11T14:54:17.468Z,88.63
2023-01-11T14:59:44.394Z,88.78
2023-01-11T15:05:10.415Z,88.82
2023-01-11T15:10:51.015Z,88.64
2023-01-11T15:16:29.417Z,89.19
2023-01-11T15:21:42.373Z,88.96
2023-01-11T15:26:52.552Z,88.85
2023-01-11T15:32:19.794Z,89.12
2023-01-11T15:37:50.286Z,89.21
2023-01-11T15:44:00.344Z,89.29
2023-01-11T15:49:51.516Z,89.35
2023-01-11T15:55:48.633Z,88.89
2023-01-11T16:01:25.194Z,89.64
2023-01-11T16:06:48.279Z,89.75
2023-01-11T16:12:15.827Z,90.03
2023-01-11T16:17:26.323Z,90.02
2023-01-11T16:22:33.571Z,90.02
2023-01-11T16:27:40.775Z,90.17
2023-01-11T16:32:48.927Z,90.17
2023-01-11T16:37:59.226Z,90.09
2023-01-11T16:43:18.794Z,90.45
2023-01-11T16:48:28.860Z,90.32
2023-01-11T16:53:38.073Z,90.69
2023-01-11T16:59:04.518Z,90.62
2023-01-11T17:04:31.425Z,90.79
2023-01-11T17:09:38.504Z,90.55
2023-01-11T17:15:00.490Z,90.53
2023-01-11T17:20:21.571Z,90.82
2023-01-11T17:25:43.511Z,90.83
2023-01-11T17:30:54.019Z,90.76
2023-01-11T17:36:03.463Z,90.64
2023-01-11T17:41:32.428Z,90.51
2023-01-11T17:46:41.178Z,90.50
2023-01-11T17:51:49.207Z,90.52
2023-01-11T17:57:01.926Z,90.03
2023-01-11T18:02:15.549Z,89.76
2023-01-11T18:07:23.627Z,89.87
2023-01-11T18:12:34.036Z,89.71
2023-01-11T18:17:42.785Z,89.94
2023-01-11T18:23:05.237Z,90.05
2023-01-11T18:28:30.627Z,89.92
2023-01-11T18:33:42.137Z,89.85
2023-01-11T18:38:51.119Z,90.23
2023-01-11T18:43:58.909Z,90.06
2023-01-11T18:49:06.811Z,90.10
2023-01-11T18:54:18.938Z,90.13
2023-01-11T18:59:26.032Z,89.82
2023-01-11T19:04:33.535Z,90.02
2023-01-11T19:09:42.678Z,89.77
2023-01-11T19:14:51.393Z,89.86
2023-01-11T19:19:59.870Z,89.62
2023-01-11T19:25:10.688Z,89.90
2023-01-11T19:30:19.208Z,89.84
2023-01-11T19:35:26.872Z,89.74
2023-01-11T19:40:36.895Z,89.83
2023-01-11T19:45:44.721Z,89.82
2023-01-11T19:50:52.287Z,89.77
2023-01-11T19:56:05.710Z,89.83
2023-01-11T20:01:15.137Z,89.59
2023-01-11T20:06:24.089Z,89.36
2023-01-11T20:11:33.167Z,89.40
2023-01-11T20:16:39.909Z,89.56
2023-01-11T20:21:50.214Z,89.74
2023-01-11T20:27:00.497Z,89.18
2023-01-11T20:32:31.100Z,89.43
2023-01-11T20:37:36.431Z,89.67
2023-01-11T20:42:45.798Z,89.53
2023-01-11T20:47:53.313Z,89.59
2023-01-11T20:53:01.414Z,89.76
2023-01-11T20:58:10.311Z,89.84
2023-01-11T21:03:20.202Z,89.70
2023-01-11T21:08:27.246Z,89.97
2023-01-11T21:13:35.668Z,90.10
2023-01-11T21:18:44.122Z,90.40
2023-01-11T21:23:51.089Z,90.60
2023-01-11T21:29:01.395Z,90.40
2023-01-11T21:34:08.309Z,90.63
2023-01-11T21:39:17.010Z,90.73
2023-01-11T21:44:30.077Z,90.79
2023-01-11T21:49:36.552Z,90.58
2023-01-11T21:54:43.737Z,90.65
2023-01-11T21:59:54.297Z,90.79
2023-01-11T22:05:00.800Z,90.65
2023-01-11T22:10:08.135Z,91.32
2023-01-11T22:15:16.123Z,91.21
2023-01-11T22:20:23.991Z,91.33
2023-01-11T22:25:30.528Z,91.18
2023-01-11T22:30:38.588Z,91.69
2023-01-11T22:35:54.895Z,91.65
2023-01-11T22:41:02.177Z,91.28
2023-01-11T22:46:14.275Z,91.30
2023-01-11T22:51:23.755Z,91.11
2023-01-11T22:56:30.941Z,91.49
2023-01-11T23:01:40.766Z,91.51
2023-01-11T23:06:47.629Z,91.62
2023-01-11T23:12:11.771Z,91.73
2023-01-11T23:17:19.711Z,91.59
2023-01-11T23:22:25.920Z,92.04
2023-01-11T23:27:32.211Z,92.29
2023-01-11T23:32:42.635Z,92.09
2023-01-11T23:37:51.070Z,92.09
2023-01-11T23:43:01.689Z,92.18
2023-01-11T23:48:09.885Z,92.20
2023-01-11T23:53:18.052Z,92.47
2023-01-11T23:58:24.544Z,92.44
